Portada
METAR-TAF:

METAR-TAF

Aeroports :

Ceduna, Austràlia

latitud: 32-07-50S, longitud: 133-42-35E, altitud: 23 m

Observació

L'informe es va fer fa 47 minuts, a les 14:00 UTC
Vent 15 kt del Nord
Temperatura 14°C
Humitat 47%
Pressió 1008 hPa
Visibilitat 10 km o més

METAR: YCDU 161400Z AUTO 35015KT 9999 // NCD 14/03 Q1008

Hora: 00:17 (14:47 UTC)


TAF: manca

Observacions i pronòstics meteorològics de més de 4000 aeroports (METAR i TAF).

Les estacions disponibles són els punts grocs i vermells al mapa.

Posi el ratolí al punt desitjat per veure el nom de l'estació.

Feu clic per veure les observacions i els pronòstics meteorològics.

Per canviar el mapa: feu clic els botons verds amb una creu de color negre per apropar; al botó verd amb un guió per allunyar la imatge; o en les fletxes verdes per a mapes adjacents.


METAR-TAF: